sensor_id;sensor_type;location;lat;lon;timestamp;noise_LAeq;noise_LA_min;noise_LA_max;noise_LA01;noise_LA95
46749;Laerm;33775;47.992;11.864;2023-09-12T04:48:08;36.61;28.67;39.46;;
46749;Laerm;33775;47.992;11.864;2023-09-12T04:50:34;36.60;26.91;39.46;;
46749;Laerm;33775;47.992;11.864;2023-09-12T04:53:05;36.53;28.67;39.81;;
46749;Laerm;33775;47.992;11.864;2023-09-12T04:55:34;36.53;29.92;39.46;;
46749;Laerm;33775;47.992;11.864;2023-09-12T04:58:01;36.56;29.92;39.70;;
46749;Laerm;33775;47.992;11.864;2023-09-12T05:00:34;36.61;28.67;39.58;;
46749;Laerm;33775;47.992;11.864;2023-09-12T05:06:28;37.23;28.67;40.71;;
46749;Laerm;33775;47.992;11.864;2023-09-12T05:08:53;37.04;26.91;41.14;;
46749;Laerm;33775;47.992;11.864;2023-09-12T05:11:18;36.73;26.91;39.70;;
46749;Laerm;33775;47.992;11.864;2023-09-12T05:13:43;36.62;28.67;39.58;;
46749;Laerm;33775;47.992;11.864;2023-09-12T05:16:12;36.62;28.67;39.34;;
46749;Laerm;33775;47.992;11.864;2023-09-12T09:11:13;37.52;32.93;40.43;;
46749;Laerm;33775;47.992;11.864;2023-09-12T09:13:41;37.52;33.44;40.13;;
46749;Laerm;33775;47.992;11.864;2023-09-12T09:25:31;37.53;32.35;40.23;;
46749;Laerm;33775;47.992;11.864;2023-09-12T09:30:58;37.51;32.93;40.53;;
46749;Laerm;33775;47.992;11.864;2023-09-12T09:33:23;37.51;32.93;40.23;;
46749;Laerm;33775;47.992;11.864;2023-09-12T09:35:49;37.50;32.93;40.71;;
46749;Laerm;33775;47.992;11.864;2023-09-12T09:38:14;37.50;33.90;40.13;;
46749;Laerm;33775;47.992;11.864;2023-09-12T09:40:42;37.47;32.35;40.23;;
46749;Laerm;33775;47.992;11.864;2023-09-12T09:43:07;37.49;33.44;40.13;;
46749;Laerm;33775;47.992;11.864;2023-09-12T09:45:32;37.47;33.44;40.23;;
46749;Laerm;33775;47.992;11.864;2023-09-12T09:47:59;37.53;30.89;40.62;;
46749;Laerm;33775;47.992;11.864;2023-09-12T09:50:29;37.48;33.44;40.23;;
46749;Laerm;33775;47.992;11.864;2023-09-12T09:52:54;37.47;32.35;40.43;;
46749;Laerm;33775;47.992;11.864;2023-09-12T09:55:20;37.47;32.93;40.98;;
46749;Laerm;33775;47.992;11.864;2023-09-12T09:58:03;37.47;32.93;40.23;;
46749;Laerm;33775;47.992;11.864;2023-09-12T10:00:36;37.50;33.44;40.13;;
46749;Laerm;33775;47.992;11.864;2023-09-12T10:03:08;37.49;32.93;40.13;;
46749;Laerm;33775;47.992;11.864;2023-09-12T10:05:36;37.47;31.68;40.23;;
46749;Laerm;33775;47.992;11.864;2023-09-12T10:08:02;37.50;32.93;40.23;;
46749;Laerm;33775;47.992;11.864;2023-09-12T10:10:29;37.51;32.93;40.23;;
46749;Laerm;33775;47.992;11.864;2023-09-12T10:12:58;37.52;33.44;40.23;;
46749;Laerm;33775;47.992;11.864;2023-09-12T10:15:23;37.49;32.93;40.23;;
46749;Laerm;33775;47.992;11.864;2023-09-12T10:17:57;37.48;33.44;40.13;;
46749;Laerm;33775;47.992;11.864;2023-09-12T10:20:24;37.49;33.44;40.03;;
46749;Laerm;33775;47.992;11.864;2023-09-12T10:22:52;37.51;30.89;40.62;;
46749;Laerm;33775;47.992;11.864;2023-09-12T10:25:20;37.54;33.44;40.03;;
46749;Laerm;33775;47.992;11.864;2023-09-12T10:27:55;37.52;33.44;40.33;;
46749;Laerm;33775;47.992;11.864;2023-09-12T10:30:50;37.52;32.35;40.71;;
46749;Laerm;33775;47.992;11.864;2023-09-12T10:33:16;37.52;32.93;40.88;;
46749;Laerm;33775;47.992;11.864;2023-09-12T10:35:42;37.49;31.68;40.33;;
46749;Laerm;33775;47.992;11.864;2023-09-12T10:41:00;37.51;32.93;40.62;;
46749;Laerm;33775;47.992;11.864;2023-09-12T10:43:26;37.53;33.44;40.13;;
46749;Laerm;33775;47.992;11.864;2023-09-12T10:45:51;37.51;32.93;40.03;;
46749;Laerm;33775;47.992;11.864;2023-09-12T10:48:17;37.50;33.09;40.43;;
46749;Laerm;33775;47.992;11.864;2023-09-12T10:50:42;37.51;32.35;40.53;;
46749;Laerm;33775;47.992;11.864;2023-09-12T10:53:12;37.50;32.93;40.62;;
46749;Laerm;33775;47.992;11.864;2023-09-12T10:55:37;37.50;33.44;40.33;;
46749;Laerm;33775;47.992;11.864;2023-09-12T10:58:03;37.49;32.93;40.80;;
46749;Laerm;33775;47.992;11.864;2023-09-12T11:00:30;37.48;32.35;40.13;;
46749;Laerm;33775;47.992;11.864;2023-09-12T11:02:59;37.49;31.68;40.33;;
46749;Laerm;33775;47.992;11.864;2023-09-12T11:07:56;37.44;32.93;40.33;;
46749;Laerm;33775;47.992;11.864;2023-09-12T11:10:23;37.44;32.93;40.33;;
46749;Laerm;33775;47.992;11.864;2023-09-12T11:12:49;37.51;31.68;40.33;;
46749;Laerm;33775;47.992;11.864;2023-09-12T11:15:15;37.49;32.93;40.03;;
46749;Laerm;33775;47.992;11.864;2023-09-12T11:17:45;37.45;32.93;40.23;;
46749;Laerm;33775;47.992;11.864;2023-09-12T11:20:11;37.44;32.93;40.43;;
46749;Laerm;33775;47.992;11.864;2023-09-12T11:22:37;37.48;32.35;40.13;;
46749;Laerm;33775;47.992;11.864;2023-09-12T11:25:04;37.47;32.35;40.13;;
46749;Laerm;33775;47.992;11.864;2023-09-12T11:30:14;37.46;33.44;40.33;;
46749;Laerm;33775;47.992;11.864;2023-09-12T11:32:39;37.45;32.35;40.43;;
46749;Laerm;33775;47.992;11.864;2023-09-12T11:35:05;37.40;33.44;40.08;;
46749;Laerm;33775;47.992;11.864;2023-09-12T11:37:31;37.39;31.68;40.23;;
46749;Laerm;33775;47.992;11.864;2023-09-12T11:39:58;37.37;31.68;40.23;;
46749;Laerm;33775;47.992;11.864;2023-09-12T11:42:23;37.37;32.35;40.03;;
46749;Laerm;33775;47.992;11.864;2023-09-12T11:44:50;37.39;32.35;40.13;;
46749;Laerm;33775;47.992;11.864;2023-09-12T11:47:16;37.43;32.35;40.13;;
46749;Laerm;33775;47.992;11.864;2023-09-12T11:49:41;37.42;33.44;40.36;;
46749;Laerm;33775;47.992;11.864;2023-09-12T11:52:10;37.43;32.93;40.43;;
46749;Laerm;33775;47.992;11.864;2023-09-12T11:54:37;37.48;33.44;39.92;;
46749;Laerm;33775;47.992;11.864;2023-09-12T11:57:02;37.44;32.35;40.13;;
46749;Laerm;33775;47.992;11.864;2023-09-12T11:59:31;37.46;32.93;39.92;;
46749;Laerm;33775;47.992;11.864;2023-09-12T12:01:57;37.49;31.68;40.33;;
46749;Laerm;33775;47.992;11.864;2023-09-12T12:04:23;37.46;32.93;40.33;;
46749;Laerm;33775;47.992;11.864;2023-09-12T12:06:50;37.47;33.44;40.23;;
46749;Laerm;33775;47.992;11.864;2023-09-12T12:09:15;37.50;33.44;40.53;;
46749;Laerm;33775;47.992;11.864;2023-09-12T12:11:43;37.47;32.35;40.23;;
46749;Laerm;33775;47.992;11.864;2023-09-12T12:14:09;37.48;33.44;40.33;;
46749;Laerm;33775;47.992;11.864;2023-09-12T12:16:35;37.46;32.93;40.23;;
46749;Laerm;33775;47.992;11.864;2023-09-12T12:19:00;37.45;32.35;40.33;;
46749;Laerm;33775;47.992;11.864;2023-09-12T12:21:25;37.44;32.35;40.62;;
46749;Laerm;33775;47.992;11.864;2023-09-12T12:23:59;37.42;32.93;40.13;;
46749;Laerm;33775;47.992;11.864;2023-09-12T12:26:25;37.41;32.93;40.33;;
46749;Laerm;33775;47.992;11.864;2023-09-12T12:28:51;37.37;30.89;40.03;;
46749;Laerm;33775;47.992;11.864;2023-09-12T12:31:16;37.41;32.35;40.03;;
46749;Laerm;33775;47.992;11.864;2023-09-12T12:33:47;37.41;32.93;40.33;;
46749;Laerm;33775;47.992;11.864;2023-09-12T12:36:12;37.38;32.93;40.13;;
46749;Laerm;33775;47.992;11.864;2023-09-12T12:38:38;37.41;29.92;40.33;;
46749;Laerm;33775;47.992;11.864;2023-09-12T12:41:03;37.45;31.68;40.23;;
46749;Laerm;33775;47.992;11.864;2023-09-12T12:43:29;37.42;32.93;40.23;;
46749;Laerm;33775;47.992;11.864;2023-09-12T12:45:55;37.37;32.93;40.43;;
46749;Laerm;33775;47.992;11.864;2023-09-12T12:48:33;37.41;32.35;40.33;;
46749;Laerm;33775;47.992;11.864;2023-09-12T12:50:59;37.42;33.44;40.33;;
46749;Laerm;33775;47.992;11.864;2023-09-12T12:53:40;37.43;32.93;40.23;;
46749;Laerm;33775;47.992;11.864;2023-09-12T12:56:06;37.43;32.93;40.71;;
46749;Laerm;33775;47.992;11.864;2023-09-12T12:58:31;37.42;30.89;40.13;;
46749;Laerm;33775;47.992;11.864;2023-09-12T13:00:57;37.42;32.35;40.23;;
46749;Laerm;33775;47.992;11.864;2023-09-12T13:03:22;37.37;32.35;40.03;;
46749;Laerm;33775;47.992;11.864;2023-09-12T13:05:47;37.39;31.68;40.23;;
46749;Laerm;33775;47.992;11.864;2023-09-12T13:08:12;37.38;32.93;40.23;;
46749;Laerm;33775;47.992;11.864;2023-09-12T13:10:37;37.40;32.93;40.03;;
46749;Laerm;33775;47.992;11.864;2023-09-12T13:13:03;37.39;32.93;40.23;;
46749;Laerm;33775;47.992;11.864;2023-09-12T13:15:29;37.42;32.93;40.13;;
46749;Laerm;33775;47.992;11.864;2023-09-12T13:17:54;37.38;32.93;40.13;;
46749;Laerm;33775;47.992;11.864;2023-09-12T13:20:19;37.41;33.44;40.71;;
46749;Laerm;33775;47.992;11.864;2023-09-12T13:22:45;37.37;31.68;40.03;;
46749;Laerm;33775;47.992;11.864;2023-09-12T13:25:10;37.40;32.35;40.03;;
46749;Laerm;33775;47.992;11.864;2023-09-12T13:27:35;37.36;31.68;40.63;;
46749;Laerm;33775;47.992;11.864;2023-09-12T13:30:00;37.36;32.35;40.13;;
46749;Laerm;33775;47.992;11.864;2023-09-12T13:32:26;37.37;30.89;40.23;;
46749;Laerm;33775;47.992;11.864;2023-09-12T13:34:52;37.41;32.35;40.13;;
46749;Laerm;33775;47.992;11.864;2023-09-12T13:37:17;37.38;32.35;40.23;;
46749;Laerm;33775;47.992;11.864;2023-09-12T13:39:44;37.41;32.35;40.13;;
46749;Laerm;33775;47.992;11.864;2023-09-12T13:42:13;37.40;30.89;40.13;;
46749;Laerm;33775;47.992;11.864;2023-09-12T13:44:39;37.41;31.68;40.03;;
46749;Laerm;33775;47.992;11.864;2023-09-12T13:47:04;37.39;32.35;40.53;;
46749;Laerm;33775;47.992;11.864;2023-09-12T13:49:30;37.38;31.68;39.81;;
46749;Laerm;33775;47.992;11.864;2023-09-12T13:51:55;37.41;32.35;40.03;;
46749;Laerm;33775;47.992;11.864;2023-09-12T13:54:20;37.44;31.68;40.23;;
46749;Laerm;33775;47.992;11.864;2023-09-12T13:56:45;37.44;31.68;40.03;;
46749;Laerm;33775;47.992;11.864;2023-09-12T13:59:11;37.49;32.35;40.43;;
46749;Laerm;33775;47.992;11.864;2023-09-12T14:01:37;37.51;33.44;40.62;;
46749;Laerm;33775;47.992;11.864;2023-09-12T14:04:02;37.50;32.35;40.43;;
46749;Laerm;33775;47.992;11.864;2023-09-12T14:06:27;37.49;32.93;40.63;;
46749;Laerm;33775;47.992;11.864;2023-09-12T14:08:53;37.54;33.44;40.53;;
46749;Laerm;33775;47.992;11.864;2023-09-12T14:11:18;37.46;32.35;40.53;;
46749;Laerm;33775;47.992;11.864;2023-09-12T14:13:43;37.47;32.35;40.23;;
46749;Laerm;33775;47.992;11.864;2023-09-12T14:16:08;37.45;32.35;40.23;;
46749;Laerm;33775;47.992;11.864;2023-09-12T14:18:34;37.49;30.89;40.53;;
46749;Laerm;33775;47.992;11.864;2023-09-12T14:20:59;37.45;32.93;40.23;;
46749;Laerm;33775;47.992;11.864;2023-09-12T14:23:24;37.43;33.44;40.62;;
46749;Laerm;33775;47.992;11.864;2023-09-12T14:25:49;37.45;29.92;40.08;;
46749;Laerm;33775;47.992;11.864;2023-09-12T14:28:14;37.37;32.93;40.33;;
46749;Laerm;33775;47.992;11.864;2023-09-12T14:30:40;37.34;30.89;40.33;;
46749;Laerm;33775;47.992;11.864;2023-09-12T14:33:09;37.36;31.68;40.03;;
46749;Laerm;33775;47.992;11.864;2023-09-12T14:35:34;37.33;31.68;40.23;;
46749;Laerm;33775;47.992;11.864;2023-09-12T14:38:01;37.40;32.93;40.36;;
46749;Laerm;33775;47.992;11.864;2023-09-12T14:40:26;37.46;32.35;40.43;;
46749;Laerm;33775;47.992;11.864;2023-09-12T14:42:52;37.44;31.68;40.23;;
46749;Laerm;33775;47.992;11.864;2023-09-12T14:45:18;37.45;32.93;40.43;;
46749;Laerm;33775;47.992;11.864;2023-09-12T14:47:43;37.45;32.93;40.13;;
46749;Laerm;33775;47.992;11.864;2023-09-12T14:50:08;37.45;32.35;40.13;;
46749;Laerm;33775;47.992;11.864;2023-09-12T14:52:33;37.43;32.35;40.23;;
46749;Laerm;33775;47.992;11.864;2023-09-12T14:54:59;37.38;31.68;40.62;;
46749;Laerm;33775;47.992;11.864;2023-09-12T14:57:25;37.40;32.35;40.89;;
46749;Laerm;33775;47.992;11.864;2023-09-12T14:59:50;37.42;33.44;40.33;;
46749;Laerm;33775;47.992;11.864;2023-09-12T15:02:16;37.43;32.93;40.13;;
46749;Laerm;33775;47.992;11.864;2023-09-12T15:04:41;37.36;32.93;40.13;;
46749;Laerm;33775;47.992;11.864;2023-09-12T15:07:06;37.31;32.35;40.62;;
46749;Laerm;33775;47.992;11.864;2023-09-12T15:09:31;37.32;31.68;40.23;;
46749;Laerm;33775;47.992;11.864;2023-09-12T15:11:56;37.31;29.92;40.43;;
46749;Laerm;33775;47.992;11.864;2023-09-12T15:14:22;37.34;32.35;40.23;;
46749;Laerm;33775;47.992;11.864;2023-09-12T15:16:47;37.35;32.35;40.23;;
46749;Laerm;33775;47.992;11.864;2023-09-12T15:19:13;37.32;31.68;40.23;;
46749;Laerm;33775;47.992;11.864;2023-09-12T15:21:38;37.32;32.35;40.03;;
46749;Laerm;33775;47.992;11.864;2023-09-12T15:24:03;37.34;30.89;40.03;;
46749;Laerm;33775;47.992;11.864;2023-09-12T15:26:29;37.32;32.35;40.23;;
46749;Laerm;33775;47.992;11.864;2023-09-12T15:28:54;37.30;32.35;40.13;;
46749;Laerm;33775;47.992;11.864;2023-09-12T15:31:19;37.35;31.68;39.92;;
46749;Laerm;33775;47.992;11.864;2023-09-12T15:33:45;37.34;33.44;40.53;;
46749;Laerm;33775;47.992;11.864;2023-09-12T15:36:10;37.33;32.93;40.03;;
46749;Laerm;33775;47.992;11.864;2023-09-12T15:38:35;37.35;32.93;39.92;;
46749;Laerm;33775;47.992;11.864;2023-09-12T15:41:00;37.33;32.35;40.23;;
46749;Laerm;33775;47.992;11.864;2023-09-12T15:43:27;37.33;30.89;40.23;;
46749;Laerm;33775;47.992;11.864;2023-09-12T15:45:53;37.33;30.89;39.92;;
46749;Laerm;33775;47.992;11.864;2023-09-12T15:48:18;37.34;31.68;40.53;;
46749;Laerm;33775;47.992;11.864;2023-09-12T15:50:43;37.35;31.68;40.03;;
46749;Laerm;33775;47.992;11.864;2023-09-12T15:53:09;37.38;32.35;40.33;;
46749;Laerm;33775;47.992;11.864;2023-09-12T15:55:34;37.35;32.35;40.03;;
46749;Laerm;33775;47.992;11.864;2023-09-12T15:57:59;37.39;32.93;40.03;;
46749;Laerm;33775;47.992;11.864;2023-09-12T16:00:24;37.37;33.44;40.23;;
46749;Laerm;33775;47.992;11.864;2023-09-12T16:02:50;37.36;32.35;40.13;;
46749;Laerm;33775;47.992;11.864;2023-09-12T16:05:16;37.38;32.35;40.62;;
46749;Laerm;33775;47.992;11.864;2023-09-12T16:07:41;37.37;32.93;39.92;;
46749;Laerm;33775;47.992;11.864;2023-09-12T16:10:07;37.39;33.44;40.03;;
46749;Laerm;33775;47.992;11.864;2023-09-12T16:12:34;37.38;32.93;39.92;;
46749;Laerm;33775;47.992;11.864;2023-09-12T16:14:59;37.39;32.35;40.33;;
46749;Laerm;33775;47.992;11.864;2023-09-12T16:17:24;37.38;32.35;40.03;;
46749;Laerm;33775;47.992;11.864;2023-09-12T16:19:49;37.38;32.93;40.23;;
46749;Laerm;33775;47.992;11.864;2023-09-12T16:22:15;37.36;32.93;40.13;;
46749;Laerm;33775;47.992;11.864;2023-09-12T16:24:41;37.35;32.93;40.13;;
46749;Laerm;33775;47.992;11.864;2023-09-12T16:27:06;37.37;32.35;40.23;;
46749;Laerm;33775;47.992;11.864;2023-09-12T16:29:32;37.39;32.35;40.33;;
46749;Laerm;33775;47.992;11.864;2023-09-12T16:31:57;37.41;33.44;40.03;;
46749;Laerm;33775;47.992;11.864;2023-09-12T16:34:22;37.43;33.44;40.23;;
46749;Laerm;33775;47.992;11.864;2023-09-12T16:36:47;37.43;33.90;40.03;;
46749;Laerm;33775;47.992;11.864;2023-09-12T16:39:13;37.48;30.89;39.92;;
46749;Laerm;33775;47.992;11.864;2023-09-12T16:41:38;37.54;32.35;40.53;;
46749;Laerm;33775;47.992;11.864;2023-09-12T16:44:03;37.59;32.93;40.43;;
46749;Laerm;33775;47.992;11.864;2023-09-12T16:46:28;37.62;33.44;40.33;;
46749;Laerm;33775;47.992;11.864;2023-09-12T16:48:54;37.59;30.89;40.43;;
46749;Laerm;33775;47.992;11.864;2023-09-12T16:51:19;37.61;33.90;40.23;;
46749;Laerm;33775;47.992;11.864;2023-09-12T16:53:46;37.61;33.90;40.23;;
46749;Laerm;33775;47.992;11.864;2023-09-12T16:56:11;37.61;33.90;40.27;;
46749;Laerm;33775;47.992;11.864;2023-09-12T16:58:36;37.58;32.93;40.13;;
46749;Laerm;33775;47.992;11.864;2023-09-12T17:01:01;37.55;32.93;40.03;;
46749;Laerm;33775;47.992;11.864;2023-09-12T17:03:26;37.55;32.93;40.80;;
46749;Laerm;33775;47.992;11.864;2023-09-12T17:05:51;37.57;33.44;40.43;;
46749;Laerm;33775;47.992;11.864;2023-09-12T17:08:17;37.52;32.93;40.03;;
46749;Laerm;33775;47.992;11.864;2023-09-12T17:10:42;37.55;33.90;40.23;;
46749;Laerm;33775;47.992;11.864;2023-09-12T17:13:07;37.51;32.93;40.43;;
46749;Laerm;33775;47.992;11.864;2023-09-12T17:15:32;37.52;32.35;39.92;;
46749;Laerm;33775;47.992;11.864;2023-09-12T17:18:02;37.50;33.44;40.13;;
46749;Laerm;33775;47.992;11.864;2023-09-12T17:20:27;37.51;32.93;40.03;;
46749;Laerm;33775;47.992;11.864;2023-09-12T17:22:52;37.49;31.68;40.13;;
46749;Laerm;33775;47.992;11.864;2023-09-12T17:25:18;37.49;32.93;40.43;;
46749;Laerm;33775;47.992;11.864;2023-09-12T17:27:43;37.50;31.68;40.13;;
46749;Laerm;33775;47.992;11.864;2023-09-12T17:30:08;37.48;33.44;40.33;;
46749;Laerm;33775;47.992;11.864;2023-09-12T17:32:35;37.49;32.35;40.62;;
46749;Laerm;33775;47.992;11.864;2023-09-12T17:35:00;37.52;32.93;40.23;;
46749;Laerm;33775;47.992;11.864;2023-09-12T17:37:28;37.49;33.44;40.43;;
46749;Laerm;33775;47.992;11.864;2023-09-12T17:39:53;37.50;32.93;40.62;;
46749;Laerm;33775;47.992;11.864;2023-09-12T17:42:19;37.54;33.44;40.71;;
46749;Laerm;33775;47.992;11.864;2023-09-12T17:44:45;37.54;32.35;40.33;;
46749;Laerm;33775;47.992;11.864;2023-09-12T17:47:10;37.49;33.44;40.13;;
46749;Laerm;33775;47.992;11.864;2023-09-12T17:49:35;37.53;33.44;40.33;;
46749;Laerm;33775;47.992;11.864;2023-09-12T17:52:00;37.47;33.90;40.62;;
46749;Laerm;33775;47.992;11.864;2023-09-12T17:54:26;37.48;33.44;40.13;;
46749;Laerm;33775;47.992;11.864;2023-09-12T17:56:51;37.52;33.44;40.62;;
46749;Laerm;33775;47.992;11.864;2023-09-12T17:59:16;37.56;33.44;40.33;;
46749;Laerm;33775;47.992;11.864;2023-09-12T18:01:41;37.55;33.90;40.43;;
46749;Laerm;33775;47.992;11.864;2023-09-12T18:04:06;37.56;32.93;40.13;;
46749;Laerm;33775;47.992;11.864;2023-09-12T18:06:31;37.56;33.44;40.23;;
46749;Laerm;33775;47.992;11.864;2023-09-12T18:08:59;37.54;32.93;40.03;;
46749;Laerm;33775;47.992;11.864;2023-09-12T18:11:24;37.60;33.44;40.13;;
46749;Laerm;33775;47.992;11.864;2023-09-12T18:13:50;37.63;33.44;40.43;;
46749;Laerm;33775;47.992;11.864;2023-09-12T18:16:15;37.62;33.44;40.33;;
46749;Laerm;33775;47.992;11.864;2023-09-12T18:18:41;37.65;32.35;40.62;;
46749;Laerm;33775;47.992;11.864;2023-09-12T18:21:06;37.62;33.90;40.13;;
46749;Laerm;33775;47.992;11.864;2023-09-12T18:23:32;37.62;33.90;40.98;;
46749;Laerm;33775;47.992;11.864;2023-09-12T18:26:00;37.65;34.31;40.23;;
46749;Laerm;33775;47.992;11.864;2023-09-12T18:31:03;37.64;33.44;40.13;;
46749;Laerm;33775;47.992;11.864;2023-09-12T18:33:28;37.63;33.90;40.33;;
46749;Laerm;33775;47.992;11.864;2023-09-12T18:35:54;37.62;33.44;40.13;;
46749;Laerm;33775;47.992;11.864;2023-09-12T18:38:20;37.62;33.44;40.62;;
46749;Laerm;33775;47.992;11.864;2023-09-12T18:40:45;37.59;33.44;40.53;;
46749;Laerm;33775;47.992;11.864;2023-09-12T18:43:10;37.61;33.44;40.53;;
46749;Laerm;33775;47.992;11.864;2023-09-12T18:45:35;37.54;32.35;40.33;;
46749;Laerm;33775;47.992;11.864;2023-09-12T18:48:01;37.51;33.44;40.03;;
46749;Laerm;33775;47.992;11.864;2023-09-12T18:50:26;37.62;32.35;40.13;;
46749;Laerm;33775;47.992;11.864;2023-09-12T18:52:51;37.59;33.90;40.23;;
46749;Laerm;33775;47.992;11.864;2023-09-12T18:55:16;37.50;32.93;40.33;;
46749;Laerm;33775;47.992;11.864;2023-09-12T18:57:42;37.40;32.93;40.23;;
46749;Laerm;33775;47.992;11.864;2023-09-12T19:00:10;37.31;29.92;39.92;;
46749;Laerm;33775;47.992;11.864;2023-09-12T19:02:35;37.32;33.44;40.03;;
46749;Laerm;33775;47.992;11.864;2023-09-12T19:05:00;37.26;30.89;40.36;;
46749;Laerm;33775;47.992;11.864;2023-09-12T19:07:28;37.29;32.00;40.13;;
46749;Laerm;33775;47.992;11.864;2023-09-12T19:09:53;37.27;32.93;40.13;;
46749;Laerm;33775;47.992;11.864;2023-09-12T19:12:18;37.29;32.93;40.03;;
46749;Laerm;33775;47.992;11.864;2023-09-12T19:14:43;37.26;29.92;39.92;;
46749;Laerm;33775;47.992;11.864;2023-09-12T19:17:08;37.26;33.44;40.53;;
46749;Laerm;33775;47.992;11.864;2023-09-12T19:19:34;37.34;32.35;40.13;;
46749;Laerm;33775;47.992;11.864;2023-09-12T19:21:59;37.43;32.35;40.33;;
46749;Laerm;33775;47.992;11.864;2023-09-12T19:24:24;37.44;33.44;40.23;;
46749;Laerm;33775;47.992;11.864;2023-09-12T19:26:49;37.47;33.90;40.33;;
46749;Laerm;33775;47.992;11.864;2023-09-12T19:29:15;37.60;32.93;40.23;;
46749;Laerm;33775;47.992;11.864;2023-09-12T19:31:41;37.61;33.44;40.13;;
46749;Laerm;33775;47.992;11.864;2023-09-12T19:34:06;37.58;31.68;40.43;;
46749;Laerm;33775;47.992;11.864;2023-09-12T19:36:33;37.62;33.44;40.23;;
46749;Laerm;33775;47.992;11.864;2023-09-12T19:38:58;37.61;32.35;40.43;;
46749;Laerm;33775;47.992;11.864;2023-09-12T19:41:27;37.55;33.90;40.43;;
46749;Laerm;33775;47.992;11.864;2023-09-12T19:43:52;37.57;33.90;40.80;;
46749;Laerm;33775;47.992;11.864;2023-09-12T19:46:17;37.62;33.44;40.23;;
46749;Laerm;33775;47.992;11.864;2023-09-12T19:48:43;37.56;33.90;40.23;;
46749;Laerm;33775;47.992;11.864;2023-09-12T19:51:08;37.44;33.44;40.13;;
46749;Laerm;33775;47.992;11.864;2023-09-12T19:53:33;37.37;33.44;40.03;;
46749;Laerm;33775;47.992;11.864;2023-09-12T19:55:58;37.37;32.35;40.23;;
46749;Laerm;33775;47.992;11.864;2023-09-12T19:58:24;37.43;32.35;40.03;;
46749;Laerm;33775;47.992;11.864;2023-09-12T20:00:51;37.49;32.35;40.33;;
46749;Laerm;33775;47.992;11.864;2023-09-12T20:03:21;37.53;32.93;40.53;;
46749;Laerm;33775;47.992;11.864;2023-09-12T20:05:47;37.57;33.90;40.62;;
46749;Laerm;33775;47.992;11.864;2023-09-12T20:08:12;37.55;33.44;40.53;;
46749;Laerm;33775;47.992;11.864;2023-09-12T20:10:39;37.55;33.44;40.13;;
46749;Laerm;33775;47.992;11.864;2023-09-12T20:13:04;37.53;33.44;40.53;;
46749;Laerm;33775;47.992;11.864;2023-09-12T20:15:32;37.55;32.93;40.18;;
46749;Laerm;33775;47.992;11.864;2023-09-12T20:18:07;37.60;32.93;40.13;;
46749;Laerm;33775;47.992;11.864;2023-09-12T20:20:33;37.59;33.44;40.33;;
46749;Laerm;33775;47.992;11.864;2023-09-12T20:22:59;37.55;33.44;40.13;;
46749;Laerm;33775;47.992;11.864;2023-09-12T20:25:24;37.57;33.44;40.13;;
46749;Laerm;33775;47.992;11.864;2023-09-12T20:27:49;37.56;33.44;40.13;;
46749;Laerm;33775;47.992;11.864;2023-09-12T20:30:15;37.57;32.93;40.13;;
46749;Laerm;33775;47.992;11.864;2023-09-12T20:32:43;37.60;33.44;40.23;;
46749;Laerm;33775;47.992;11.864;2023-09-12T20:35:08;37.61;32.93;40.13;;
46749;Laerm;33775;47.992;11.864;2023-09-12T20:37:34;37.56;33.44;40.23;;
46749;Laerm;33775;47.992;11.864;2023-09-12T20:39:59;37.60;32.93;40.53;;
46749;Laerm;33775;47.992;11.864;2023-09-12T20:42:24;37.60;33.44;42.53;;
46749;Laerm;33775;47.992;11.864;2023-09-12T20:44:49;37.85;33.90;58.58;;
46749;Laerm;33775;47.992;11.864;2023-09-12T20:47:16;37.57;32.93;40.03;;
46749;Laerm;33775;47.992;11.864;2023-09-12T20:49:44;37.46;33.44;40.03;;
46749;Laerm;33775;47.992;11.864;2023-09-12T20:52:12;37.41;33.44;40.13;;
46749;Laerm;33775;47.992;11.864;2023-09-12T20:54:37;37.38;33.44;40.23;;
46749;Laerm;33775;47.992;11.864;2023-09-12T20:57:04;37.42;32.93;39.70;;
46749;Laerm;33775;47.992;11.864;2023-09-12T20:59:29;37.44;32.35;40.03;;
46749;Laerm;33775;47.992;11.864;2023-09-12T21:01:54;37.39;33.90;40.62;;
46749;Laerm;33775;47.992;11.864;2023-09-12T21:04:19;37.34;33.44;39.92;;
46749;Laerm;33775;47.992;11.864;2023-09-12T21:06:44;37.27;32.35;39.99;;
46749;Laerm;33775;47.992;11.864;2023-09-12T21:09:10;37.21;32.35;39.92;;
46749;Laerm;33775;47.992;11.864;2023-09-12T21:11:39;37.24;33.44;40.13;;
46749;Laerm;33775;47.992;11.864;2023-09-12T21:14:05;37.18;33.44;39.92;;
46749;Laerm;33775;47.992;11.864;2023-09-12T21:16:30;37.16;32.58;39.70;;
46749;Laerm;33775;47.992;11.864;2023-09-12T21:18:56;37.20;32.35;40.13;;
46749;Laerm;33775;47.992;11.864;2023-09-12T21:21:21;37.14;31.68;40.13;;
46749;Laerm;33775;47.992;11.864;2023-09-12T21:23:46;37.11;30.89;39.81;;
46749;Laerm;33775;47.992;11.864;2023-09-12T21:26:11;37.06;32.93;39.81;;
46749;Laerm;33775;47.992;11.864;2023-09-12T21:28:37;37.14;29.92;40.13;;
46749;Laerm;33775;47.992;11.864;2023-09-12T21:31:02;37.17;32.93;40.03;;
46749;Laerm;33775;47.992;11.864;2023-09-12T21:33:27;37.24;32.93;39.81;;
46749;Laerm;33775;47.992;11.864;2023-09-12T21:35:52;37.23;33.44;39.81;;
46749;Laerm;33775;47.992;11.864;2023-09-12T21:38:17;37.08;32.93;39.34;;
46749;Laerm;33775;47.992;11.864;2023-09-12T21:40:43;37.07;32.35;39.70;;
46749;Laerm;33775;47.992;11.864;2023-09-12T21:43:09;37.06;32.93;40.43;;
46749;Laerm;33775;47.992;11.864;2023-09-12T21:45:34;37.11;33.09;39.46;;
46749;Laerm;33775;47.992;11.864;2023-09-12T21:47:59;37.19;30.89;40.13;;
46749;Laerm;33775;47.992;11.864;2023-09-12T21:50:24;37.22;32.93;40.33;;
46749;Laerm;33775;47.992;11.864;2023-09-12T21:52:50;37.15;32.35;40.13;;
46749;Laerm;33775;47.992;11.864;2023-09-12T21:55:15;37.11;32.93;40.33;;
46749;Laerm;33775;47.992;11.864;2023-09-12T21:57:40;37.09;31.68;39.58;;
46749;Laerm;33775;47.992;11.864;2023-09-12T22:00:05;37.07;32.93;39.81;;
46749;Laerm;33775;47.992;11.864;2023-09-12T22:02:51;37.12;32.93;39.70;;
46749;Laerm;33775;47.992;11.864;2023-09-12T22:05:16;37.07;32.93;39.58;;
46749;Laerm;33775;47.992;11.864;2023-09-12T22:07:42;37.10;32.93;39.70;;
46749;Laerm;33775;47.992;11.864;2023-09-12T22:10:07;37.00;29.92;39.70;;
46749;Laerm;33775;47.992;11.864;2023-09-12T22:12:32;37.01;32.35;39.81;;
46749;Laerm;33775;47.992;11.864;2023-09-12T22:14:58;37.02;32.93;39.81;;
46749;Laerm;33775;47.992;11.864;2023-09-12T22:17:23;37.01;32.35;39.81;;
46749;Laerm;33775;47.992;11.864;2023-09-12T22:19:49;37.04;32.35;39.70;;
46749;Laerm;33775;47.992;11.864;2023-09-12T22:22:14;37.00;31.68;39.70;;
46749;Laerm;33775;47.992;11.864;2023-09-12T22:24:39;36.97;30.89;40.03;;
46749;Laerm;33775;47.992;11.864;2023-09-12T22:27:04;36.98;32.35;41.30;;
46749;Laerm;33775;47.992;11.864;2023-09-12T22:29:30;37.02;32.00;43.29;;
46749;Laerm;33775;47.992;11.864;2023-09-12T22:31:55;37.00;31.68;40.62;;